Time;durP1;ratioP1;P1;durP2;ratioP2;P2;SDS_P1;SDS_P2;PMS_P1;PMS_P2;Temp;Humidity;BMP_temperature;BMP_pressure;BME280_temperature;BME280_humidity;BME280_pressure;Samples;Min_cycle;Max_cycle;Signal;HPM_P1;HPM_P2
2022/02/15 00:00:22;;;;;;;27.27;14.32;;;;;;;0.96;65.49;99470.88;4968764;28;107516;-78
2022/02/15 00:02:49;;;;;;;27.50;14.73;;;;;;;1.04;65.63;99472.88;4970418;28;105858;-78
2022/02/15 00:05:14;;;;;;;32.85;16.58;;;;;;;1.12;66.12;99480.94;4969430;28;106311;-76
2022/02/15 00:07:39;;;;;;;35.75;16.90;;;;;;;1.21;65.76;99474.09;4969918;28;106103;-80
2022/02/15 00:10:08;;;;;;;35.58;16.55;;;;;;;1.30;65.67;99478.59;4969914;28;105993;-81
2022/02/15 00:12:33;;;;;;;44.45;18.42;;;;;;;1.36;65.83;99479.84;4969597;28;106059;-76
2022/02/15 00:14:58;;;;;;;30.92;16.27;;;;;;;1.43;65.42;99477.56;4969617;28;106118;-79
2022/02/15 00:17:24;;;;;;;32.30;16.90;;;;;;;1.48;65.39;99473.56;4969073;28;114350;-79
2022/02/15 00:19:49;;;;;;;32.17;17.27;;;;;;;1.52;65.16;99479.41;4968790;28;105927;-73
2022/02/15 00:22:15;;;;;;;39.05;18.08;;;;;;;1.55;65.09;99481.75;4969839;28;106076;-80
2022/02/15 00:24:40;;;;;;;38.55;18.77;;;;;;;1.60;64.79;99474.34;4969829;28;106566;-77
2022/02/15 00:27:05;;;;;;;32.70;17.65;;;;;;;1.63;65.17;99468.81;4969029;28;115612;-75
2022/02/15 00:29:30;;;;;;;38.22;18.23;;;;;;;1.67;64.88;99467.59;4968982;28;112195;-75
2022/02/15 00:31:56;;;;;;;34.90;19.15;;;;;;;1.71;64.97;99467.31;4969336;28;106081;-77
2022/02/15 00:34:21;;;;;;;34.80;18.42;;;;;;;1.75;64.73;99468.72;4969481;28;105934;-77
2022/02/15 00:36:46;;;;;;;35.53;19.50;;;;;;;1.77;65.00;99464.19;4969166;28;106179;-80
2022/02/15 00:39:12;;;;;;;29.60;17.92;;;;;;;1.80;64.88;99467.38;4969497;28;105775;-74
2022/02/15 00:41:37;;;;;;;33.08;17.80;;;;;;;1.80;64.58;99461.28;4969933;28;105868;-74
2022/02/15 00:44:02;;;;;;;32.05;16.52;;;;;;;1.79;64.45;99459.63;4969022;28;105872;-74
2022/02/15 00:46:28;;;;;;;31.90;17.02;;;;;;;1.74;64.55;99461.84;4968478;28;110751;-74
2022/02/15 00:48:53;;;;;;;34.22;16.23;;;;;;;1.71;64.15;99462.94;4969205;28;106027;-80
2022/02/15 00:51:19;;;;;;;30.98;16.25;;;;;;;1.73;64.72;99460.16;4970104;28;105947;-76
2022/02/15 00:53:44;;;;;;;32.05;16.67;;;;;;;1.74;64.73;99456.59;4968724;28;106171;-75
2022/02/15 00:56:09;;;;;;;35.42;18.88;;;;;;;1.77;64.67;99456.31;4968764;28;118917;-80
2022/02/15 00:58:35;;;;;;;36.35;18.15;;;;;;;1.82;64.73;99454.13;4969356;28;106081;-82
2022/02/15 01:01:00;;;;;;;35.00;16.67;;;;;;;1.85;64.55;99464.38;4969746;28;105931;-81
2022/02/15 01:03:25;;;;;;;33.08;17.50;;;;;;;1.88;64.21;99466.72;4968653;28;106502;-75
2022/02/15 01:05:51;;;;;;;34.20;17.67;;;;;;;1.87;64.42;99462.41;4968136;28;106210;-78
2022/02/15 01:08:16;;;;;;;32.83;17.23;;;;;;;1.88;64.28;99458.84;4967939;28;123157;-77
2022/02/15 01:10:41;;;;;;;31.52;17.67;;;;;;;1.90;64.36;99462.19;4969422;28;105882;-77
2022/02/15 01:13:07;;;;;;;35.72;18.75;;;;;;;1.91;64.19;99466.44;4969156;28;105828;-80
2022/02/15 01:15:33;;;;;;;33.33;17.63;;;;;;;1.90;63.91;99464.81;4968952;28;107240;-81
2022/02/15 01:17:58;;;;;;;34.28;17.05;;;;;;;1.91;64.09;99463.81;4969072;28;106345;-85
2022/02/15 01:20:24;;;;;;;29.75;16.17;;;;;;;1.90;64.04;99462.19;4969487;28;105889;-81
2022/02/15 01:22:49;;;;;;;27.65;17.27;;;;;;;1.90;64.43;99461.31;4968498;28;106210;-79
2022/02/15 01:25:14;;;;;;;28.30;16.52;;;;;;;1.90;64.07;99451.66;4968571;28;106104;-78
2022/02/15 01:27:40;;;;;;;41.38;18.40;;;;;;;1.88;63.74;99458.84;4968304;28;106206;-75
2022/02/15 01:30:06;;;;;;;39.78;19.63;;;;;;;1.88;64.47;99453.59;4969067;28;106028;-77
2022/02/15 01:32:31;;;;;;;37.53;18.55;;;;;;;1.91;64.14;99463.81;4965858;28;106218;-74
2022/02/15 01:34:57;;;;;;;38.00;19.33;;;;;;;1.96;64.51;99451.13;4958769;28;106629;-78
2022/02/15 01:37:22;;;;;;;36.92;17.80;;;;;;;2.02;64.35;99455.88;4962333;28;106035;-77
2022/02/15 01:39:48;;;;;;;34.72;18.67;;;;;;;2.07;64.12;99447.56;4957732;28;106203;-73
2022/02/15 01:42:17;;;;;;;40.28;20.65;;;;;;;2.10;64.13;99446.47;4957845;28;106126;-76
2022/02/15 01:44:42;;;;;;;37.70;19.40;;;;;;;2.10;63.91;99447.28;4968485;28;106044;-78
2022/02/15 01:47:07;;;;;;;44.33;21.08;;;;;;;2.10;63.72;99435.97;4958469;28;108940;-75
2022/02/15 01:49:33;;;;;;;39.33;20.75;;;;;;;2.09;63.70;99439.53;4954889;28;106110;-74
2022/02/15 01:51:58;;;;;;;42.58;20.88;;;;;;;2.07;63.75;99437.06;4957672;28;106170;-79
2022/02/15 01:54:23;;;;;;;44.10;21.27;;;;;;;2.07;63.79;99429.19;4958961;28;105916;-74
2022/02/15 01:56:49;;;;;;;42.70;21.20;;;;;;;2.09;63.83;99434.28;4965648;28;105940;-76
2022/02/15 01:59:14;;;;;;;50.38;23.88;;;;;;;2.09;63.83;99424.63;4969195;28;105927;-75
2022/02/15 02:01:39;;;;;;;43.50;21.48;;;;;;;2.10;63.97;99428.06;4960034;28;106091;-76
2022/02/15 02:04:05;;;;;;;42.85;21.75;;;;;;;2.11;63.81;99437.63;4958437;28;106105;-77
2022/02/15 02:06:31;;;;;;;39.92;21.70;;;;;;;2.12;63.79;99434.00;4956227;28;106119;-75
2022/02/15 02:08:59;;;;;;;41.10;21.17;;;;;;;2.14;63.77;99437.34;4959922;28;106056;-80
2022/02/15 02:11:25;;;;;;;37.10;20.33;;;;;;;2.13;63.98;99426.03;4956604;28;106191;-79
2022/02/15 02:13:50;;;;;;;42.50;21.50;;;;;;;2.15;63.62;99433.78;4954285;28;113325;-79
2022/02/15 02:16:15;;;;;;;38.38;19.85;;;;;;;2.14;63.83;99429.47;4957574;28;117874;-81
2022/02/15 02:18:40;;;;;;;40.05;20.33;;;;;;;2.12;63.88;99428.75;4963278;28;106082;-73
2022/02/15 02:21:06;;;;;;;43.03;20.63;;;;;;;2.09;63.64;99427.25;4966789;28;106185;-74
2022/02/15 02:23:33;;;;;;;39.03;19.98;;;;;;;2.07;63.60;99425.72;4956590;28;105828;-75
2022/02/15 02:25:58;;;;;;;45.28;20.85;;;;;;;2.04;63.81;99437.34;4950451;28;106488;-81
2022/02/15 02:28:24;;;;;;;35.70;19.58;;;;;;;2.02;63.90;99434.84;4952488;28;106009;-78
2022/02/15 02:30:49;;;;;;;40.42;19.55;;;;;;;2.02;63.81;99445.34;4951471;28;106901;-85
2022/02/15 02:33:15;;;;;;;37.33;19.98;;;;;;;2.01;63.79;99438.44;4951458;28;105978;-76
2022/02/15 02:35:40;;;;;;;41.45;20.23;;;;;;;2.00;63.62;99431.50;4956466;28;105873;-80
2022/02/15 02:38:05;;;;;;;37.13;18.85;;;;;;;1.99;63.54;99435.09;4962352;28;106025;-77
2022/02/15 02:40:31;;;;;;;36.45;20.83;;;;;;;1.98;63.73;99432.59;4960615;28;106159;-76
2022/02/15 02:42:56;;;;;;;36.50;20.00;;;;;;;1.97;63.80;99438.81;4960002;28;106588;-77
2022/02/15 02:45:23;;;;;;;41.78;21.70;;;;;;;1.94;63.57;99442.56;4952928;28;106055;-81
2022/02/15 02:47:51;;;;;;;45.22;20.77;;;;;;;1.96;63.86;99440.63;4965373;28;105900;-76
2022/02/15 02:50:18;;;;;;;40.45;19.95;;;;;;;1.95;63.74;99440.75;4963418;28;106151;-79
2022/02/15 02:52:44;;;;;;;40.63;21.73;;;;;;;1.94;64.20;99442.56;4958755;28;109076;-74
2022/02/15 02:55:10;;;;;;;39.63;21.10;;;;;;;1.95;63.85;99438.94;4960003;28;106006;-73
2022/02/15 02:57:35;;;;;;;38.25;21.92;;;;;;;1.94;63.78;99437.31;4961133;28;105969;-76
2022/02/15 03:00:07;;;;;;;38.80;20.50;;;;;;;1.95;63.85;99438.94;4959203;28;106625;-80
2022/02/15 03:02:32;;;;;;;34.95;20.10;;;;;;;1.98;64.21;99438.72;4961752;28;106802;-73
2022/02/15 03:04:58;;;;;;;43.53;21.95;;;;;;;2.03;64.05;99441.75;4951441;28;112019;-76
2022/02/15 03:07:23;;;;;;;44.67;21.92;;;;;;;2.06;63.97;99445.06;4959635;28;106929;-81
2022/02/15 03:09:48;;;;;;;42.70;21.73;;;;;;;2.05;63.91;99430.28;4962675;28;106143;-74
2022/02/15 03:12:15;;;;;;;42.30;22.13;;;;;;;2.02;63.95;99450.59;4963488;28;108492;-80
2022/02/15 03:14:41;;;;;;;38.17;20.63;;;;;;;2.00;63.81;99463.03;4959620;28;106261;-75
2022/02/15 03:17:06;;;;;;;38.00;21.20;;;;;;;1.95;63.86;99465.22;4963503;28;106040;-82
2022/02/15 03:19:32;;;;;;;42.30;19.65;;;;;;;1.94;64.01;99463.56;4959391;28;106228;-72
2022/02/15 03:21:59;;;;;;;41.53;20.88;;;;;;;1.94;64.12;99466.19;4960300;28;106426;-74
2022/02/15 03:24:24;;;;;;;38.40;20.38;;;;;;;1.96;64.13;99466.88;4962430;28;106181;-80
2022/02/15 03:26:49;;;;;;;36.38;19.25;;;;;;;1.98;64.15;99472.00;4971683;28;105827;-73
2022/02/15 03:29:15;;;;;;;38.25;19.08;;;;;;;2.02;64.16;99466.38;4970587;28;106377;-81
2022/02/15 03:31:41;;;;;;;39.33;21.40;;;;;;;2.06;63.99;99477.44;4962374;28;105998;-74
2022/02/15 03:34:06;;;;;;;43.75;20.67;;;;;;;2.06;64.11;99466.91;4953276;28;106183;-72
2022/02/15 03:36:32;;;;;;;44.85;21.63;;;;;;;2.10;64.01;99472.75;4951143;28;105935;-72
2022/02/15 03:38:57;;;;;;;35.90;19.95;;;;;;;2.13;64.21;99467.22;4950808;28;106511;-77
2022/02/15 03:44:06;;;;;;;44.42;22.02;;;;;;;2.22;63.92;99471.69;4950192;28;105845;-83
2022/02/15 03:46:32;;;;;;;39.65;21.50;;;;;;;2.21;64.10;99475.25;4950952;28;105869;-78
2022/02/15 03:48:57;;;;;;;37.78;20.17;;;;;;;2.26;64.23;99472.25;4950157;28;106522;-87
2022/02/15 03:51:22;;;;;;;43.13;19.90;;;;;;;2.28;64.62;99479.00;4948952;28;127772;-79
2022/02/15 03:53:48;;;;;;;37.80;20.58;;;;;;;2.32;64.19;99466.44;4950109;28;106068;-75
2022/02/15 03:56:13;;;;;;;39.90;20.05;;;;;;;2.36;64.57;99473.94;4950647;28;106075;-77
2022/02/15 03:58:39;;;;;;;44.25;21.95;;;;;;;2.43;64.45;99473.38;4950212;28;106218;-74
2022/02/15 04:01:05;;;;;;;44.13;22.75;;;;;;;2.48;64.45;99471.19;4949701;28;106030;-74
2022/02/15 04:03:30;;;;;;;42.60;21.08;;;;;;;2.49;63.92;99464.97;4949989;28;105959;-85
2022/02/15 04:05:56;;;;;;;42.95;21.98;;;;;;;2.53;64.43;99459.28;4950713;28;106509;-79
2022/02/15 04:08:25;;;;;;;41.55;22.25;;;;;;;2.58;64.07;99460.69;4950123;28;106107;-81
2022/02/15 04:10:51;;;;;;;43.53;21.70;;;;;;;2.59;63.99;99463.16;4964345;28;106144;-72
2022/02/15 04:13:16;;;;;;;40.88;22.00;;;;;;;2.60;64.15;99469.25;4968755;28;105862;-74
2022/02/15 04:15:43;;;;;;;41.53;20.00;;;;;;;2.63;64.31;99461.09;4969728;28;105789;-73
2022/02/15 04:18:08;;;;;;;41.20;21.38;;;;;;;2.62;63.96;99462.06;4969325;28;106175;-73
2022/02/15 04:20:34;;;;;;;50.25;23.92;;;;;;;2.58;63.75;99474.66;4968992;28;106752;-74
2022/02/15 04:22:59;;;;;;;46.28;24.33;;;;;;;2.52;63.82;99464.69;4969129;28;106768;-75
2022/02/15 04:25:25;;;;;;;39.15;22.20;;;;;;;2.52;64.38;99467.31;4969735;28;106078;-73
2022/02/15 04:27:50;;;;;;;44.22;23.83;;;;;;;2.54;64.25;99470.63;4969366;28;106617;-73
2022/02/15 04:30:16;;;;;;;44.05;23.67;;;;;;;2.57;64.33;99470.38;4968833;28;106263;-76
2022/02/15 04:32:41;;;;;;;41.28;22.88;;;;;;;2.56;64.30;99468.72;4966306;28;112510;-72
2022/02/15 04:35:08;;;;;;;39.95;20.90;;;;;;;2.56;64.38;99473.13;4969873;28;106867;-76
2022/02/15 04:37:33;;;;;;;36.40;21.23;;;;;;;2.54;64.51;99475.88;4969625;28;105946;-72
2022/02/15 04:39:59;;;;;;;40.15;22.40;;;;;;;2.51;64.27;99478.78;4968408;28;105983;-72
2022/02/15 04:42:24;;;;;;;41.60;21.52;;;;;;;2.51;64.50;99476.16;4967278;28;106096;-76
2022/02/15 04:44:50;;;;;;;39.33;21.00;;;;;;;2.50;64.71;99475.34;4969503;28;106212;-74
2022/02/15 04:47:15;;;;;;;36.90;21.10;;;;;;;2.50;64.60;99474.50;4969139;28;105992;-75
2022/02/15 04:49:41;;;;;;;40.03;21.98;;;;;;;2.49;64.54;99478.94;4968072;28;109470;-72
2022/02/15 04:52:07;;;;;;;42.78;24.33;;;;;;;2.48;64.61;99486.97;4969206;28;106067;-74
2022/02/15 04:54:32;;;;;;;40.28;22.27;;;;;;;2.49;64.86;99496.53;4968358;28;106085;-77
2022/02/15 04:56:58;;;;;;;47.60;23.65;;;;;;;2.47;64.76;99501.06;4968585;28;106219;-72
2022/02/15 04:59:23;;;;;;;41.40;23.70;;;;;;;2.47;65.07;99501.88;4968463;28;105926;-74
2022/02/15 05:01:48;;;;;;;41.63;23.35;;;;;;;2.49;65.23;99507.84;4968095;28;106733;-73
2022/02/15 05:08:57;;;;;;;42.78;23.00;;;;;;;2.51;65.00;99494.56;5006467;28;105990;-79
2022/02/15 05:11:22;;;;;;;53.38;26.15;;;;;;;2.50;65.31;99496.38;5006180;28;105942;-78
2022/02/15 05:13:47;;;;;;;45.60;24.92;;;;;;;2.50;65.49;99487.63;5004717;28;105981;-74
2022/02/15 05:16:13;;;;;;;45.28;23.73;;;;;;;2.51;65.55;99486.69;5003282;28;121161;-76
2022/02/15 05:18:38;;;;;;;41.35;23.38;;;;;;;2.52;65.47;99493.59;5003043;28;108369;-73
2022/02/15 05:21:03;;;;;;;44.78;22.88;;;;;;;2.52;65.93;99493.59;5005366;28;105882;-74
2022/02/15 05:23:30;;;;;;;40.95;23.13;;;;;;;2.54;65.63;99503.03;5004560;28;105846;-73
2022/02/15 05:25:55;;;;;;;39.58;20.90;;;;;;;2.54;65.81;99510.06;5003968;28;105966;-84
2022/02/15 05:28:21;;;;;;;43.15;21.52;;;;;;;2.54;65.81;99515.31;5004059;28;106131;-73
2022/02/15 05:30:47;;;;;;;45.40;21.73;;;;;;;2.53;65.82;99504.00;5005188;28;105982;-74
2022/02/15 05:33:13;;;;;;;36.78;20.90;;;;;;;2.58;66.00;99519.34;5004807;28;106150;-81
2022/02/15 05:35:38;;;;;;;38.10;22.40;;;;;;;2.63;65.90;99519.78;5004289;28;106339;-77
2022/02/15 05:38:03;;;;;;;47.30;22.35;;;;;;;2.66;66.30;99516.88;5004560;28;106459;-77
2022/02/15 05:40:29;;;;;;;39.33;22.30;;;;;;;2.67;65.55;99522.97;5004830;28;106014;-79
2022/02/15 05:42:54;;;;;;;42.80;23.67;;;;;;;2.65;65.78;99511.75;5004376;28;105815;-80
2022/02/15 05:45:20;;;;;;;46.72;23.95;;;;;;;2.71;66.23;99519.13;5003613;28;106023;-80
2022/02/15 05:47:45;;;;;;;40.47;25.15;;;;;;;2.75;66.18;99514.38;5003731;28;106049;-76
2022/02/15 05:52:54;;;;;;;43.28;24.63;;;;;;;2.74;66.22;99533.78;5004692;28;105810;-76
2022/02/15 05:55:20;;;;;;;44.88;24.50;;;;;;;2.76;66.31;99542.38;5003955;28;105990;-76
2022/02/15 05:57:45;;;;;;;42.20;26.13;;;;;;;2.76;66.59;99552.88;5004207;28;106063;-74
2022/02/15 06:00:12;;;;;;;42.90;25.95;;;;;;;2.79;66.58;99560.50;5004590;28;105846;-76
2022/02/15 06:02:38;;;;;;;50.42;26.98;;;;;;;2.80;66.24;99565.66;5002885;28;105899;-77
2022/02/15 06:05:03;;;;;;;47.65;27.55;;;;;;;2.79;66.60;99558.72;5002049;28;122589;-79
2022/02/15 06:07:29;;;;;;;51.75;30.02;;;;;;;2.82;66.70;99562.88;5002604;28;106206;-79
2022/02/15 06:09:54;;;;;;;46.15;25.63;;;;;;;2.81;66.78;99562.03;5004646;28;105948;-77
2022/02/15 06:12:19;;;;;;;47.30;26.55;;;;;;;2.84;66.55;99566.19;5003948;28;106182;-74
2022/02/15 06:14:46;;;;;;;46.28;25.25;;;;;;;2.89;67.22;99561.38;5003847;28;106016;-80
2022/02/15 06:17:12;;;;;;;44.83;23.83;;;;;;;2.93;67.22;99568.00;5003490;28;106055;-81
2022/02/15 06:19:38;;;;;;;43.05;24.95;;;;;;;2.98;67.24;99571.06;4994758;28;106296;-77
2022/02/15 06:22:03;;;;;;;47.28;25.58;;;;;;;3.01;66.99;99570.78;4990368;28;106198;-78
2022/02/15 06:24:29;;;;;;;44.03;25.17;;;;;;;3.05;67.26;99564.28;4990329;28;105799;-76
2022/02/15 06:26:55;;;;;;;42.13;26.15;;;;;;;3.09;67.25;99566.63;4990676;28;106060;-78
2022/02/15 06:29:20;;;;;;;42.47;24.33;;;;;;;3.05;67.08;99568.72;4990889;28;106194;-80
2022/02/15 06:31:45;;;;;;;44.35;24.00;;;;;;;3.03;67.31;99576.78;4990531;28;106201;-78
2022/02/15 06:34:11;;;;;;;39.90;22.38;;;;;;;3.00;67.02;99579.66;4990276;28;106137;-76
2022/02/15 06:36:36;;;;;;;36.90;21.80;;;;;;;2.99;67.12;99580.63;4990330;28;105691;-76
2022/02/15 06:39:02;;;;;;;40.47;23.45;;;;;;;3.00;67.08;99582.28;4990705;28;105809;-76
2022/02/15 06:41:28;;;;;;;35.10;21.58;;;;;;;3.01;67.27;99586.59;4990483;28;105866;-77
2022/02/15 06:43:55;;;;;;;40.08;24.05;;;;;;;3.02;67.36;99598.78;4989986;28;105759;-76
2022/02/15 06:46:21;;;;;;;43.60;25.20;;;;;;;3.09;67.17;99601.69;4989795;28;106068;-76
2022/02/15 06:48:46;;;;;;;40.28;24.30;;;;;;;3.11;67.49;99599.75;4990452;28;106045;-76
2022/02/15 06:51:11;;;;;;;40.97;24.92;;;;;;;3.15;67.24;99608.22;4989931;28;106388;-75
2022/02/15 06:53:37;;;;;;;42.13;25.75;;;;;;;3.20;67.84;99604.19;4988298;28;106007;-76
2022/02/15 06:56:02;;;;;;;42.47;23.88;;;;;;;3.27;67.83;99608.91;4989317;28;105976;-78
2022/02/15 06:58:28;;;;;;;40.63;24.20;;;;;;;3.29;67.38;99607.78;4990785;28;106072;-77
2022/02/15 07:00:53;;;;;;;43.45;25.27;;;;;;;3.33;67.85;99614.44;4989650;28;106163;-77
2022/02/15 07:03:19;;;;;;;45.70;24.90;;;;;;;3.35;67.61;99623.06;4989524;28;105830;-78
2022/02/15 07:05:45;;;;;;;46.75;24.58;;;;;;;3.39;67.62;99621.81;4989624;28;106108;-78
2022/02/15 07:08:11;;;;;;;44.58;26.00;;;;;;;3.43;67.68;99624.16;4989893;28;106134;-77
2022/02/15 07:10:36;;;;;;;50.10;26.40;;;;;;;3.47;67.41;99622.91;4989957;28;106127;-77
2022/02/15 07:13:03;;;;;;;49.63;27.02;;;;;;;3.51;67.64;99629.56;4989422;28;106948;-77
2022/02/15 07:15:29;;;;;;;47.97;25.45;;;;;;;3.55;67.32;99628.31;4989566;28;105966;-77
2022/02/15 07:17:57;;;;;;;45.58;25.60;;;;;;;3.58;67.57;99633.31;4990257;28;106015;-78
2022/02/15 07:20:22;;;;;;;44.58;25.98;;;;;;;3.63;67.71;99630.28;4989896;28;106238;-79
2022/02/15 07:22:50;;;;;;;48.80;25.88;;;;;;;3.70;67.54;99640.13;4990974;28;106333;-79
2022/02/15 07:25:16;;;;;;;45.42;26.85;;;;;;;3.76;67.32;99633.47;4989312;28;106068;-79
2022/02/15 07:27:41;;;;;;;58.17;29.65;;;;;;;3.87;67.69;99632.47;4989640;28;105891;-77
2022/02/15 07:30:07;;;;;;;47.60;25.17;;;;;;;4.00;67.38;99638.25;4988820;28;106025;-82
2022/02/15 07:32:33;;;;;;;44.35;25.85;;;;;;;4.12;67.25;99638.13;4989833;28;106090;-82
2022/02/15 07:34:58;;;;;;;43.67;25.55;;;;;;;4.23;67.33;99638.78;4991586;28;105932;-82
2022/02/15 07:37:25;;;;;;;71.20;33.97;;;;;;;4.40;67.41;99641.63;4992148;28;105994;-81
2022/02/15 07:39:50;;;;;;;97.13;42.47;;;;;;;4.61;68.02;99646.72;4989106;28;106248;-76
2022/02/15 07:42:16;;;;;;;113.45;40.38;;;;;;;4.79;67.91;99644.13;4988704;28;105988;-75
2022/02/15 07:44:41;;;;;;;118.57;40.47;;;;;;;4.90;67.21;99646.56;4986966;28;107563;-78
2022/02/15 07:47:07;;;;;;;94.65;37.22;;;;;;;4.96;66.85;99649.59;4989470;28;105855;-78
2022/02/15 07:49:33;;;;;;;83.32;33.10;;;;;;;5.03;66.63;99658.59;4989124;28;106163;-77
2022/02/15 07:51:59;;;;;;;65.35;29.38;;;;;;;5.13;66.80;99658.56;4992236;28;105838;-79
2022/02/15 07:54:24;;;;;;;65.72;30.08;;;;;;;5.22;66.73;99661.13;4990555;28;106420;-79
2022/02/15 07:56:50;;;;;;;53.17;27.38;;;;;;;5.37;66.67;99661.47;4990411;28;105977;-76
2022/02/15 07:59:15;;;;;;;45.08;24.33;;;;;;;5.51;66.74;99653.97;4990073;28;106227;-78
2022/02/15 08:01:41;;;;;;;49.45;26.08;;;;;;;5.66;66.71;99657.75;4989591;28;105829;-77
2022/02/15 08:04:06;;;;;;;45.53;23.52;;;;;;;5.78;66.28;99654.88;4988972;28;105992;-78
2022/02/15 08:06:32;;;;;;;42.28;24.60;;;;;;;5.85;65.96;99656.78;4989067;28;105803;-81
2022/02/15 08:08:59;;;;;;;46.45;24.23;;;;;;;5.83;65.68;99658.72;4989402;28;106265;-77
2022/02/15 08:11:24;;;;;;;47.10;22.73;;;;;;;5.87;65.51;99640.75;4988333;28;106043;-81
2022/02/15 08:13:51;;;;;;;53.70;23.52;;;;;;;5.97;65.92;99648.59;4988645;28;106036;-76
2022/02/15 08:16:17;;;;;;;41.80;21.45;;;;;;;6.08;65.86;99653.66;4988675;28;106417;-80
2022/02/15 08:18:43;;;;;;;36.85;19.63;;;;;;;6.14;65.50;99652.19;4983472;28;106044;-78
2022/02/15 08:21:10;;;;;;;29.15;17.30;;;;;;;6.28;65.69;99656.94;4968207;28;106354;-77
2022/02/15 08:23:38;;;;;;;29.52;16.08;;;;;;;6.42;65.29;99668.75;4967926;28;106720;-75
2022/02/15 08:26:06;;;;;;;31.67;17.10;;;;;;;6.55;65.16;99669.19;4968972;28;106236;-77
2022/02/15 08:28:33;;;;;;;25.55;15.55;;;;;;;6.68;65.01;99679.31;4968484;28;106136;-82
2022/02/15 08:30:59;;;;;;;25.45;15.55;;;;;;;6.83;64.46;99681.41;4968526;28;105951;-78
2022/02/15 08:33:27;;;;;;;25.48;14.80;;;;;;;6.98;64.42;99684.28;4968280;28;106366;-81
2022/02/15 08:35:53;;;;;;;27.23;14.40;;;;;;;7.21;64.13;99695.13;4969171;28;106070;-79
2022/02/15 08:38:18;;;;;;;25.52;13.57;;;;;;;7.33;64.17;99687.72;4968524;28;106332;-78
2022/02/15 08:40:43;;;;;;;23.90;14.57;;;;;;;7.43;63.75;99688.38;4966996;28;108092;-77
2022/02/15 08:43:09;;;;;;;23.83;13.25;;;;;;;7.60;63.49;99689.25;4967618;28;105935;-76
2022/02/15 08:45:34;;;;;;;21.00;13.15;;;;;;;7.83;63.91;99686.78;4968190;28;106065;-80
2022/02/15 08:48:00;;;;;;;24.25;12.57;;;;;;;7.93;62.93;99684.00;4971536;28;106037;-78
2022/02/15 08:50:25;;;;;;;19.75;12.45;;;;;;;7.88;62.26;99687.13;4968177;28;106211;-77
2022/02/15 08:52:51;;;;;;;24.20;13.02;;;;;;;7.74;62.31;99690.44;4967961;28;106840;-79
2022/02/15 08:55:16;;;;;;;17.85;11.68;;;;;;;7.64;62.10;99690.59;4970943;28;106014;-79
2022/02/15 08:57:44;;;;;;;21.10;12.75;;;;;;;7.46;62.07;99693.34;4968683;28;105894;-75
2022/02/15 09:00:14;;;;;;;14.55;10.00;;;;;;;7.35;62.08;99701.63;4967771;28;106341;-75
2022/02/15 09:02:39;;;;;;;15.13;10.32;;;;;;;7.23;62.34;99695.78;4968266;28;106101;-77
2022/02/15 09:05:09;;;;;;;21.70;11.68;;;;;;;7.21;62.63;99700.41;4968912;28;106090;-76
2022/02/15 09:07:34;;;;;;;21.40;10.93;;;;;;;7.18;62.37;99706.03;4967512;28;106188;-76
2022/02/15 09:09:59;;;;;;;23.50;11.43;;;;;;;7.12;62.20;99710.13;4967676;28;105894;-78
2022/02/15 09:12:25;;;;;;;17.80;10.48;;;;;;;7.10;62.87;99715.59;4967809;28;106345;-76
2022/02/15 09:14:51;;;;;;;13.40;7.47;;;;;;;7.12;62.36;99712.78;4968728;28;106298;-77
2022/02/15 09:17:16;;;;;;;21.98;9.63;;;;;;;7.13;62.56;99718.94;4968302;28;106356;-78
2022/02/15 09:19:41;;;;;;;17.52;11.02;;;;;;;7.06;61.90;99716.91;4966794;28;108901;-80
2022/02/15 09:22:07;;;;;;;17.55;11.50;;;;;;;7.11;62.32;99725.22;4967347;28;106342;-77
2022/02/15 09:24:32;;;;;;;18.55;10.77;;;;;;;7.13;62.41;99724.22;4968451;28;105932;-78
2022/02/15 09:27:00;;;;;;;21.50;9.98;;;;;;;7.14;62.78;99721.41;4968477;28;106104;-81
2022/02/15 09:29:25;;;;;;;17.98;9.60;;;;;;;7.16;62.40;99723.91;4988254;28;106058;-80
2022/02/15 09:31:59;;;;;;;22.15;9.60;;;;;;;7.17;62.12;99730.88;4994570;28;106292;-82
2022/02/15 09:34:27;;;;;;;20.52;9.23;;;;;;;7.13;61.62;99730.34;4987987;28;106007;-76
2022/02/15 09:36:54;;;;;;;15.23;8.27;;;;;;;7.09;61.70;99729.84;4987092;28;106345;-78
2022/02/15 09:39:20;;;;;;;18.40;9.25;;;;;;;7.06;61.71;99730.16;4986850;28;106022;-81
2022/02/15 09:41:46;;;;;;;19.88;10.98;;;;;;;7.09;61.95;99735.16;4986872;28;105842;-72
2022/02/15 09:44:13;;;;;;;22.33;10.38;;;;;;;7.10;62.17;99739.44;4986721;28;105942;-72
2022/02/15 09:46:42;;;;;;;16.92;10.65;;;;;;;7.18;62.48;99740.47;4987167;28;106602;-74
2022/02/15 09:49:48;;;;;;;17.48;9.60;;;;;;;7.25;62.12;99736.19;4986308;28;106803;-73
2022/02/15 09:51:53;;;;;;;16.48;10.73;;;;;;;7.30;61.73;99741.84;4984405;28;105908;-73
2022/02/15 09:54:18;;;;;;;21.48;11.57;;;;;;;7.33;62.55;99730.94;4988756;28;106004;-77
2022/02/15 09:56:44;;;;;;;19.60;11.50;;;;;;;7.33;61.53;99738.88;4990538;28;106526;-73
2022/02/15 09:59:12;;;;;;;23.33;13.50;;;;;;;7.34;61.80;99739.69;4989436;28;127026;-76
2022/02/15 10:01:38;;;;;;;20.33;12.55;;;;;;;7.41;62.25;99749.50;4989617;28;108080;-73
2022/02/15 10:04:07;;;;;;;17.95;10.68;;;;;;;7.52;61.67;99750.19;4990900;28;106074;-76
2022/02/15 10:06:35;;;;;;;14.83;7.97;;;;;;;7.56;61.24;99747.06;4987473;28;106449;-75
2022/02/15 10:09:02;;;;;;;17.13;9.73;;;;;;;7.60;61.51;99752.88;4990159;28;105896;-77
2022/02/15 10:11:39;;;;;;;18.75;10.45;;;;;;;7.59;62.04;99759.19;4989643;28;106026;-76
2022/02/15 10:14:06;;;;;;;15.48;10.10;;;;;;;7.52;61.67;99761.63;4990630;28;105959;-76
2022/02/15 10:16:32;;;;;;;16.88;10.55;;;;;;;7.39;61.15;99756.78;4989718;28;105933;-75
2022/02/15 10:18:58;;;;;;;18.50;10.48;;;;;;;7.33;61.68;99756.59;4989748;28;106343;-76
2022/02/15 10:21:28;;;;;;;18.45;9.98;;;;;;;7.30;61.87;99763.06;4989858;28;105981;-75
2022/02/15 10:23:53;;;;;;;16.92;10.48;;;;;;;7.28;62.14;99765.00;4987655;28;106025;-76
2022/02/15 10:26:19;;;;;;;19.42;9.93;;;;;;;7.30;61.63;99760.41;5000330;28;107332;-76
2022/02/15 10:28:45;;;;;;;17.35;11.25;;;;;;;7.27;62.02;99768.66;4997918;28;105970;-76
2022/02/15 10:31:13;;;;;;;17.73;11.65;;;;;;;7.28;62.28;99765.88;4989593;28;106087;-77
2022/02/15 10:33:40;;;;;;;16.38;9.60;;;;;;;7.30;61.86;99760.41;4986634;28;106620;-76
2022/02/15 10:36:15;;;;;;;14.75;8.82;;;;;;;7.35;61.92;99767.88;5002051;28;105987;-77
2022/02/15 10:38:52;;;;;;;16.88;10.25;;;;;;;7.37;62.29;99765.91;5001196;28;106683;-76
2022/02/15 10:41:21;;;;;;;22.08;11.50;;;;;;;7.38;61.69;99760.44;4988178;28;106058;-76
2022/02/15 10:43:50;;;;;;;17.38;9.80;;;;;;;7.39;61.33;99762.06;4987620;28;106085;-77
2022/02/15 10:46:24;;;;;;;18.93;10.40;;;;;;;7.34;61.80;99769.69;4990756;28;106199;-76
2022/02/15 10:48:52;;;;;;;13.65;9.05;;;;;;;7.31;62.11;99764.69;4986069;28;106627;-77
2022/02/15 10:51:18;;;;;;;15.27;7.97;;;;;;;7.25;61.68;99770.66;4986859;28;108818;-77
2022/02/15 10:53:44;;;;;;;15.20;8.60;;;;;;;7.18;61.83;99774.91;4989629;28;106130;-77
2022/02/15 10:56:10;;;;;;;19.15;11.05;;;;;;;7.10;62.12;99773.88;4988794;28;106157;-78
2022/02/15 10:58:36;;;;;;;15.02;8.63;;;;;;;7.07;62.02;99768.09;4987745;28;107739;-77
2022/02/15 11:01:05;;;;;;;12.52;7.40;;;;;;;7.03;61.79;99778.16;4987626;28;105936;-76
2022/02/15 11:03:36;;;;;;;18.10;9.52;;;;;;;6.93;61.91;99772.16;4989273;28;106030;-78
2022/02/15 11:06:03;;;;;;;17.45;10.43;;;;;;;6.86;62.15;99765.78;4989548;28;106123;-81
2022/02/15 11:08:30;;;;;;;18.13;9.77;;;;;;;6.85;62.60;99764.13;4971083;28;106747;-80
2022/02/15 11:11:14;;;;;;;16.55;9.52;;;;;;;6.76;62.24;99771.19;4992810;28;105873;-81
2022/02/15 11:13:40;;;;;;;16.63;11.38;;;;;;;6.74;62.29;99767.91;4991354;28;106105;-76
2022/02/15 11:16:19;;;;;;;21.95;12.45;;;;;;;6.74;62.50;99768.72;4990423;28;105844;-80
2022/02/15 11:18:45;;;;;;;19.42;10.95;;;;;;;6.71;62.51;99784.91;4989636;28;106995;-78
2022/02/15 11:21:26;;;;;;;15.70;9.73;;;;;;;6.65;62.88;99782.88;4989434;28;106024;-78